createdAt,value
2023-05-05T00:00:06.797Z,64
2023-05-05T00:02:06.699Z,64
2023-05-05T00:04:06.717Z,64
2023-05-05T00:06:06.676Z,64
2023-05-05T00:08:06.672Z,65
2023-05-05T00:10:07.080Z,66
2023-05-05T00:12:06.692Z,68
2023-05-05T00:14:06.671Z,68
2023-05-05T00:16:06.681Z,67
2023-05-05T00:18:06.770Z,65
2023-05-05T00:20:06.972Z,66
2023-05-05T00:22:06.676Z,67
2023-05-05T00:24:06.681Z,67
2023-05-05T00:26:06.668Z,67
2023-05-05T00:28:06.680Z,66
2023-05-05T00:30:06.816Z,66
2023-05-05T00:32:06.696Z,66
2023-05-05T00:34:06.676Z,65
2023-05-05T00:36:06.684Z,66
2023-05-05T00:38:06.688Z,66
2023-05-05T00:40:06.864Z,67
2023-05-05T00:42:06.685Z,67
2023-05-05T00:44:06.697Z,67
2023-05-05T00:46:06.699Z,67
2023-05-05T00:48:06.728Z,67
2023-05-05T00:50:06.843Z,67
2023-05-05T00:52:06.711Z,68
2023-05-05T00:54:06.682Z,68
2023-05-05T00:56:06.705Z,68
2023-05-05T00:58:06.693Z,69
2023-05-05T01:00:06.921Z,69
2023-05-05T01:02:06.690Z,70
2023-05-05T01:04:06.803Z,70
2023-05-05T01:08:06.693Z,69
2023-05-05T01:10:18.641Z,68
2023-05-05T01:12:06.686Z,67
2023-05-05T01:14:06.726Z,67
2023-05-05T01:16:06.731Z,66
2023-05-05T01:18:06.857Z,66
2023-05-05T01:22:06.700Z,67
2023-05-05T01:24:06.695Z,67
2023-05-05T01:26:06.680Z,68
2023-05-05T01:28:06.869Z,67
2023-05-05T01:30:06.845Z,67
2023-05-05T01:32:06.699Z,67
2023-05-05T01:34:06.691Z,69
2023-05-05T01:36:06.706Z,69
2023-05-05T01:38:06.682Z,72
2023-05-05T01:40:06.877Z,73
2023-05-05T01:42:06.693Z,74
2023-05-05T01:44:06.693Z,74
2023-05-05T01:46:06.817Z,73
2023-05-05T01:48:06.691Z,74
2023-05-05T01:50:06.823Z,73
2023-05-05T01:52:06.695Z,72
2023-05-05T01:54:06.689Z,71
2023-05-05T01:56:06.698Z,70
2023-05-05T01:58:06.681Z,70
2023-05-05T02:00:06.880Z,71
2023-05-05T02:02:06.698Z,74
2023-05-05T02:04:06.694Z,75
2023-05-05T02:06:06.712Z,74
2023-05-05T02:08:06.698Z,74
2023-05-05T02:10:06.933Z,75
2023-05-05T02:12:06.694Z,76
2023-05-05T02:14:06.680Z,76
2023-05-05T02:16:06.707Z,77
2023-05-05T02:18:06.834Z,78
2023-05-05T02:20:06.840Z,77
2023-05-05T02:22:06.695Z,77
2023-05-05T02:24:06.700Z,76
2023-05-05T02:26:06.701Z,76
2023-05-05T02:28:06.697Z,77
2023-05-05T02:30:06.846Z,76
2023-05-05T02:32:06.706Z,77
2023-05-05T02:34:06.694Z,76
2023-05-05T02:36:06.708Z,78
2023-05-05T02:40:06.841Z,77
2023-05-05T02:42:06.705Z,78
2023-05-05T02:44:06.707Z,78
2023-05-05T02:46:06.748Z,78
2023-05-05T02:48:06.746Z,78
2023-05-05T02:50:06.950Z,78
2023-05-05T02:52:06.701Z,77
2023-05-05T02:54:06.689Z,77
2023-05-05T02:56:06.891Z,78
2023-05-05T02:58:06.750Z,77
2023-05-05T03:00:06.921Z,77
2023-05-05T03:02:06.721Z,77
2023-05-05T03:04:06.696Z,77
2023-05-05T03:06:06.696Z,77
2023-05-05T03:08:06.698Z,77
2023-05-05T03:10:06.804Z,76
2023-05-05T03:12:06.709Z,77
2023-05-05T03:14:06.757Z,77
2023-05-05T03:16:06.799Z,77
2023-05-05T03:18:06.741Z,77
2023-05-05T03:20:06.845Z,78
2023-05-05T03:22:06.717Z,79
2023-05-05T03:24:06.703Z,79
2023-05-05T03:26:06.697Z,79
2023-05-05T03:28:06.703Z,79
2023-05-05T03:30:06.937Z,77
2023-05-05T03:32:06.745Z,79
2023-05-05T03:34:06.694Z,79
2023-05-05T03:36:06.692Z,79
2023-05-05T03:38:06.729Z,79
2023-05-05T03:40:06.917Z,80
2023-05-05T03:42:06.707Z,80
2023-05-05T03:44:06.692Z,79
2023-05-05T03:46:06.700Z,79
2023-05-05T03:48:06.757Z,79
2023-05-05T03:50:06.882Z,78
2023-05-05T03:52:06.700Z,78
2023-05-05T03:54:06.685Z,78
2023-05-05T03:56:06.708Z,78
2023-05-05T03:58:06.706Z,79
2023-05-05T04:00:07.186Z,78
2023-05-05T04:02:06.740Z,79
2023-05-05T04:04:06.762Z,80
2023-05-05T04:06:06.701Z,80
2023-05-05T04:08:06.699Z,80
2023-05-05T04:10:06.916Z,80
2023-05-05T04:12:06.754Z,80
2023-05-05T04:14:06.710Z,79
2023-05-05T04:16:06.758Z,79
2023-05-05T04:18:06.753Z,79
2023-05-05T04:20:06.867Z,80
2023-05-05T04:24:06.718Z,80
2023-05-05T04:26:06.723Z,80
2023-05-05T04:28:06.708Z,80
2023-05-05T04:30:06.911Z,80
2023-05-05T04:32:06.712Z,80
2023-05-05T04:34:06.720Z,80
2023-05-05T04:36:06.727Z,80
2023-05-05T04:38:06.719Z,80
2023-05-05T04:40:06.874Z,80
2023-05-05T04:42:06.725Z,80
2023-05-05T04:44:06.719Z,80
2023-05-05T04:48:06.735Z,81
2023-05-05T04:50:06.911Z,81
2023-05-05T04:52:06.704Z,81
2023-05-05T04:54:06.708Z,81
2023-05-05T04:56:06.714Z,81
2023-05-05T04:58:06.713Z,81
2023-05-05T05:00:06.854Z,81
2023-05-05T05:02:06.752Z,81
2023-05-05T05:04:06.718Z,81
2023-05-05T05:06:06.701Z,81
2023-05-05T05:08:06.725Z,81
2023-05-05T05:10:07.047Z,81
2023-05-05T05:12:06.735Z,81
2023-05-05T05:14:06.718Z,81
2023-05-05T05:16:06.734Z,81
2023-05-05T05:18:06.765Z,81
2023-05-05T05:20:06.821Z,81
2023-05-05T05:22:06.702Z,81
2023-05-05T05:26:06.710Z,81
2023-05-05T05:28:10.463Z,81
2023-05-05T05:30:06.851Z,81
2023-05-05T05:32:06.821Z,80
2023-05-05T05:34:06.725Z,80
2023-05-05T05:36:06.720Z,80
2023-05-05T05:38:06.722Z,80
2023-05-05T05:40:06.901Z,77
2023-05-05T05:42:06.725Z,69
2023-05-05T05:44:06.720Z,68
2023-05-05T05:46:08.992Z,67
2023-05-05T05:48:06.793Z,66
2023-05-05T05:50:06.913Z,68
2023-05-05T05:52:06.729Z,68
2023-05-05T05:54:06.748Z,66
2023-05-05T05:56:06.717Z,65
2023-05-05T05:58:06.711Z,65
2023-05-05T06:02:06.727Z,65
2023-05-05T06:04:06.781Z,64
2023-05-05T06:06:06.710Z,65
2023-05-05T06:08:06.702Z,64
2023-05-05T06:10:18.936Z,64
2023-05-05T06:12:06.716Z,64
2023-05-05T06:14:06.716Z,64
2023-05-05T06:16:06.738Z,64
2023-05-05T06:18:06.716Z,65
2023-05-05T06:22:06.716Z,65
2023-05-05T06:24:06.718Z,65
2023-05-05T06:26:06.727Z,65
2023-05-05T06:28:06.720Z,66
2023-05-05T06:30:06.895Z,66
2023-05-05T06:32:06.710Z,65
2023-05-05T06:34:06.742Z,65
2023-05-05T06:36:06.750Z,65
2023-05-05T06:38:06.726Z,64
2023-05-05T06:40:06.947Z,64
2023-05-05T06:42:06.720Z,64
2023-05-05T06:44:06.745Z,64
2023-05-05T06:46:06.730Z,65
2023-05-05T06:48:06.736Z,65
2023-05-05T06:50:06.916Z,65
2023-05-05T06:52:06.724Z,65
2023-05-05T06:54:06.729Z,65
2023-05-05T06:56:06.783Z,64
2023-05-05T06:58:06.726Z,64
2023-05-05T07:00:07.010Z,64
2023-05-05T07:02:06.747Z,64
2023-05-05T07:06:06.747Z,64
2023-05-05T07:08:06.749Z,64
2023-05-05T07:10:06.921Z,64
2023-05-05T07:14:06.746Z,64
2023-05-05T07:16:06.789Z,64
2023-05-05T07:18:06.785Z,64
2023-05-05T07:20:06.842Z,64
2023-05-05T07:22:06.739Z,64
2023-05-05T07:24:06.730Z,64
2023-05-05T07:26:06.738Z,64
2023-05-05T07:28:06.731Z,64
2023-05-05T07:30:10.270Z,64
2023-05-05T07:32:06.769Z,64
2023-05-05T07:34:06.736Z,65
2023-05-05T07:36:06.753Z,65
2023-05-05T07:38:07.707Z,64
2023-05-05T07:40:06.859Z,63
2023-05-05T07:42:06.763Z,64
2023-05-05T07:44:06.739Z,64
2023-05-05T07:46:06.803Z,64
2023-05-05T07:48:06.781Z,63
2023-05-05T07:50:07.037Z,63
2023-05-05T07:52:06.734Z,63
2023-05-05T07:54:06.774Z,63
2023-05-05T07:56:06.733Z,63
2023-05-05T07:58:06.757Z,63
2023-05-05T08:00:07.012Z,64
2023-05-05T08:02:06.787Z,65
2023-05-05T08:04:06.825Z,64
2023-05-05T08:06:06.746Z,64
2023-05-05T08:08:06.741Z,64
2023-05-05T08:10:06.730Z,65
2023-05-05T08:12:06.741Z,64
2023-05-05T08:14:06.753Z,64
2023-05-05T08:16:06.778Z,64
2023-05-05T08:18:06.881Z,64
2023-05-05T08:20:06.733Z,64
2023-05-05T08:22:06.742Z,63
2023-05-05T08:24:06.758Z,63
2023-05-05T08:26:06.754Z,64
2023-05-05T08:28:06.764Z,64
2023-05-05T08:30:06.757Z,64
2023-05-05T08:32:06.757Z,65
2023-05-05T08:34:06.749Z,65
2023-05-05T08:36:06.778Z,65
2023-05-05T08:38:06.763Z,64
2023-05-05T08:40:06.769Z,65
2023-05-05T08:42:06.759Z,64
2023-05-05T08:44:06.742Z,64
2023-05-05T08:46:06.741Z,65
2023-05-05T08:48:06.783Z,65
2023-05-05T08:50:06.736Z,65
2023-05-05T08:52:06.750Z,64
2023-05-05T08:54:06.728Z,64
2023-05-05T08:56:06.756Z,64
2023-05-05T08:58:06.760Z,64
2023-05-05T09:00:06.748Z,64
2023-05-05T09:02:06.761Z,65
2023-05-05T09:06:06.769Z,64
2023-05-05T09:08:06.773Z,64
2023-05-05T09:10:06.768Z,64
2023-05-05T09:12:06.747Z,64
2023-05-05T09:14:06.760Z,63
2023-05-05T09:16:06.780Z,63
2023-05-05T09:18:06.783Z,62
2023-05-05T09:20:06.761Z,63
2023-05-05T09:22:06.748Z,62
2023-05-05T09:24:08.342Z,63
2023-05-05T09:26:06.753Z,63
2023-05-05T09:28:06.739Z,64
2023-05-05T09:30:06.809Z,64
2023-05-05T09:32:06.791Z,65
2023-05-05T09:34:06.754Z,64
2023-05-05T09:36:06.778Z,64
2023-05-05T09:38:06.771Z,63
2023-05-05T09:40:06.773Z,63
2023-05-05T09:42:06.744Z,64
2023-05-05T09:44:06.779Z,63
2023-05-05T09:46:06.857Z,63
2023-05-05T09:48:06.791Z,63
2023-05-05T09:50:06.991Z,63
2023-05-05T09:52:06.761Z,63
2023-05-05T09:54:06.760Z,63
2023-05-05T09:56:06.781Z,62
2023-05-05T09:58:06.764Z,63
2023-05-05T10:00:06.951Z,63
2023-05-05T10:02:06.777Z,63
2023-05-05T10:04:06.753Z,63
2023-05-05T10:06:06.788Z,63
2023-05-05T10:08:06.779Z,63
2023-05-05T10:10:06.954Z,63
2023-05-05T10:12:06.792Z,62
2023-05-05T10:14:06.765Z,62
2023-05-05T10:16:06.769Z,63
2023-05-05T10:18:08.345Z,61
2023-05-05T10:20:06.947Z,62
2023-05-05T10:22:06.747Z,63
2023-05-05T10:24:06.771Z,63
2023-05-05T10:26:06.777Z,62
2023-05-05T10:28:06.906Z,63
2023-05-05T10:30:06.972Z,61
2023-05-05T10:34:06.987Z,61
2023-05-05T10:36:06.788Z,62
2023-05-05T10:38:06.767Z,62
2023-05-05T10:40:06.944Z,61
2023-05-05T10:42:06.782Z,60
2023-05-05T10:44:06.763Z,61
2023-05-05T10:46:06.816Z,60
2023-05-05T10:48:06.846Z,61
2023-05-05T10:50:06.984Z,62
2023-05-05T10:52:06.800Z,62
2023-05-05T10:54:06.782Z,64
2023-05-05T10:56:06.783Z,63
2023-05-05T10:58:06.802Z,61
2023-05-05T11:00:06.890Z,61
2023-05-05T11:02:06.783Z,61
2023-05-05T11:04:06.840Z,61
2023-05-05T11:06:06.809Z,62
2023-05-05T11:08:06.784Z,63
2023-05-05T11:10:06.902Z,62
2023-05-05T11:12:06.787Z,61
2023-05-05T11:14:06.778Z,61
2023-05-05T11:16:06.829Z,59
2023-05-05T11:18:07.722Z,61
2023-05-05T11:20:06.885Z,61
2023-05-05T11:22:06.780Z,61
2023-05-05T11:24:06.817Z,61
2023-05-05T11:26:06.803Z,61
2023-05-05T11:28:06.804Z,61
2023-05-05T11:30:06.916Z,60
2023-05-05T11:32:06.764Z,60
2023-05-05T11:34:06.802Z,60
2023-05-05T11:36:07.262Z,62
2023-05-05T11:38:06.774Z,62
2023-05-05T11:40:06.994Z,61
2023-05-05T11:42:10.346Z,62
2023-05-05T11:44:06.782Z,62
2023-05-05T11:46:06.864Z,62
2023-05-05T11:48:07.030Z,60
2023-05-05T11:50:06.904Z,61
2023-05-05T11:52:06.794Z,62
2023-05-05T11:54:06.774Z,63
2023-05-05T11:56:06.811Z,61
2023-05-05T11:58:06.799Z,60
2023-05-05T12:00:06.822Z,59
2023-05-05T12:02:06.779Z,60
2023-05-05T12:04:06.880Z,60
2023-05-05T12:06:06.815Z,60
2023-05-05T12:08:06.794Z,62
2023-05-05T12:10:06.911Z,60
2023-05-05T12:12:06.774Z,62
2023-05-05T12:14:06.777Z,59
2023-05-05T12:16:06.808Z,58
2023-05-05T12:18:06.828Z,60
2023-05-05T12:20:06.996Z,57
2023-05-05T12:22:06.801Z,57
2023-05-05T12:24:06.769Z,55
2023-05-05T12:26:06.802Z,57
2023-05-05T12:28:06.782Z,58
2023-05-05T12:30:06.997Z,55
2023-05-05T12:32:06.916Z,58
2023-05-05T12:34:06.799Z,59
2023-05-05T12:36:06.791Z,57
2023-05-05T12:38:06.778Z,58
2023-05-05T12:40:06.997Z,60
2023-05-05T12:42:06.804Z,59
2023-05-05T12:44:06.823Z,58
2023-05-05T12:46:06.837Z,58
2023-05-05T12:48:06.832Z,60
2023-05-05T12:50:06.881Z,58
2023-05-05T12:52:06.789Z,57
2023-05-05T12:54:06.790Z,57
2023-05-05T12:56:06.791Z,57
2023-05-05T12:58:06.791Z,56
2023-05-05T13:00:06.876Z,56
2023-05-05T13:02:06.842Z,56
2023-05-05T13:04:06.819Z,56
2023-05-05T13:06:06.786Z,57
2023-05-05T13:08:06.790Z,58
2023-05-05T13:10:06.881Z,57
2023-05-05T13:12:06.785Z,58
2023-05-05T13:16:06.826Z,59
2023-05-05T13:18:06.811Z,61
2023-05-05T13:20:06.782Z,60
2023-05-05T13:22:06.786Z,60
2023-05-05T13:24:21.125Z,60
2023-05-05T13:26:06.779Z,58
2023-05-05T13:28:06.794Z,58
2023-05-05T13:30:06.809Z,58
2023-05-05T13:32:06.930Z,58
2023-05-05T13:34:06.822Z,57
2023-05-05T13:36:06.793Z,56
2023-05-05T13:38:06.789Z,56
2023-05-05T13:42:06.793Z,57
2023-05-05T13:44:06.795Z,56
2023-05-05T13:46:18.972Z,56
2023-05-05T13:48:06.843Z,56
2023-05-05T13:50:06.833Z,56
2023-05-05T13:52:06.821Z,57
2023-05-05T13:54:06.797Z,58
2023-05-05T13:56:06.798Z,58
2023-05-05T13:58:06.796Z,57
2023-05-05T14:00:06.812Z,57
2023-05-05T14:02:06.791Z,57
2023-05-05T14:04:06.846Z,56
2023-05-05T14:06:06.810Z,56
2023-05-05T14:08:06.788Z,56
2023-05-05T14:10:06.798Z,57
2023-05-05T14:12:06.796Z,57
2023-05-05T14:14:06.799Z,57
2023-05-05T14:16:06.802Z,58
2023-05-05T14:18:06.831Z,58
2023-05-05T14:20:06.794Z,59
2023-05-05T14:22:06.798Z,59
2023-05-05T14:24:06.809Z,58
2023-05-05T14:26:06.803Z,58
2023-05-05T14:28:06.813Z,58
2023-05-05T14:30:06.809Z,58
2023-05-05T14:32:06.843Z,58
2023-05-05T14:34:06.791Z,58
2023-05-05T14:36:06.820Z,58
2023-05-05T14:38:06.812Z,57
2023-05-05T14:40:06.827Z,58
2023-05-05T14:42:06.806Z,58
2023-05-05T14:44:06.807Z,58
2023-05-05T14:46:07.066Z,58
2023-05-05T14:48:06.800Z,58
2023-05-05T14:50:06.807Z,57
2023-05-05T14:52:06.816Z,58
2023-05-05T14:54:11.770Z,58
2023-05-05T14:56:06.812Z,59
2023-05-05T14:58:06.815Z,58
2023-05-05T15:00:06.840Z,59
2023-05-05T15:02:06.801Z,58
2023-05-05T15:04:06.806Z,58
2023-05-05T15:06:06.832Z,58
2023-05-05T15:10:06.857Z,59
2023-05-05T15:12:06.813Z,59
2023-05-05T15:14:06.808Z,59
2023-05-05T15:16:06.812Z,58
2023-05-05T15:18:06.973Z,58
2023-05-05T15:20:06.874Z,59
2023-05-05T15:22:06.840Z,59
2023-05-05T15:24:06.788Z,59
2023-05-05T15:26:06.819Z,59
2023-05-05T15:28:06.816Z,58
2023-05-05T15:30:06.836Z,59
2023-05-05T15:32:06.865Z,59
2023-05-05T15:34:06.813Z,60
2023-05-05T15:36:06.814Z,59
2023-05-05T15:38:06.808Z,59
2023-05-05T15:40:06.815Z,59
2023-05-05T15:42:06.812Z,60
2023-05-05T15:44:06.808Z,60
2023-05-05T15:46:06.802Z,60
2023-05-05T15:48:06.834Z,60
2023-05-05T15:50:06.810Z,60
2023-05-05T15:52:38.223Z,60
2023-05-05T15:54:06.802Z,60
2023-05-05T15:56:06.796Z,60
2023-05-05T15:58:06.815Z,59
2023-05-05T16:00:06.852Z,59
2023-05-05T16:02:06.837Z,59
2023-05-05T16:04:06.808Z,60
2023-05-05T16:06:06.816Z,59
2023-05-05T16:10:06.801Z,61
2023-05-05T16:12:06.803Z,60
2023-05-05T16:14:06.979Z,62
2023-05-05T16:16:06.801Z,61
2023-05-05T16:18:06.887Z,61
2023-05-05T16:20:06.803Z,63
2023-05-05T16:24:06.816Z,62
2023-05-05T16:26:06.801Z,63
2023-05-05T16:28:06.810Z,64
2023-05-05T16:30:06.812Z,64
2023-05-05T16:32:06.813Z,64
2023-05-05T16:34:06.815Z,65
2023-05-05T16:36:06.813Z,64
2023-05-05T16:38:06.807Z,64
2023-05-05T16:40:06.845Z,64
2023-05-05T16:42:06.893Z,64
2023-05-05T16:44:06.814Z,64
2023-05-05T16:46:06.872Z,65
2023-05-05T16:50:06.804Z,67
2023-05-05T16:52:06.806Z,68
2023-05-05T16:54:06.917Z,68
2023-05-05T16:56:06.794Z,68
2023-05-05T16:58:06.802Z,67
2023-05-05T17:00:06.830Z,67
2023-05-05T17:02:06.834Z,71
2023-05-05T17:04:06.813Z,72
2023-05-05T17:06:06.812Z,74
2023-05-05T17:08:06.803Z,75
2023-05-05T17:10:06.827Z,77
2023-05-05T17:12:06.803Z,77
2023-05-05T17:14:06.846Z,77
2023-05-05T17:16:06.830Z,79
2023-05-05T17:18:06.816Z,79
2023-05-05T17:20:06.824Z,80
2023-05-05T17:22:06.819Z,80
2023-05-05T17:24:06.809Z,80
2023-05-05T17:26:06.800Z,80
2023-05-05T17:30:06.822Z,82
2023-05-05T17:32:06.841Z,82
2023-05-05T17:34:06.799Z,81
2023-05-05T17:36:06.826Z,81
2023-05-05T17:38:06.813Z,81
2023-05-05T17:40:06.824Z,81
2023-05-05T17:42:06.813Z,81
2023-05-05T17:44:06.818Z,82
2023-05-05T17:46:06.869Z,82
2023-05-05T17:48:06.894Z,83
2023-05-05T17:50:06.818Z,83
2023-05-05T17:52:06.819Z,83
2023-05-05T17:54:06.823Z,82
2023-05-05T17:56:08.856Z,83
2023-05-05T17:58:06.816Z,83
2023-05-05T18:00:06.807Z,82
2023-05-05T18:02:06.871Z,83
2023-05-05T18:04:06.823Z,82
2023-05-05T18:06:06.844Z,83
2023-05-05T18:08:06.833Z,83
2023-05-05T18:10:06.846Z,83
2023-05-05T18:12:06.831Z,83
2023-05-05T18:14:06.799Z,83
2023-05-05T18:16:06.887Z,83
2023-05-05T18:18:06.965Z,83
2023-05-05T18:20:06.852Z,83
2023-05-05T18:24:18.485Z,82
2023-05-05T18:26:06.845Z,83
2023-05-05T18:28:06.817Z,80
2023-05-05T18:30:06.862Z,81
2023-05-05T18:32:06.821Z,81
2023-05-05T18:36:06.857Z,82
2023-05-05T18:38:06.828Z,83
2023-05-05T18:42:06.832Z,85
2023-05-05T18:44:06.826Z,85
2023-05-05T18:46:06.818Z,86
2023-05-05T18:48:06.832Z,86
2023-05-05T18:50:06.819Z,86
2023-05-05T18:52:06.846Z,86
2023-05-05T18:54:06.831Z,87
2023-05-05T18:56:06.826Z,87
2023-05-05T18:58:06.856Z,87
2023-05-05T19:00:06.823Z,88
2023-05-05T19:02:06.822Z,88
2023-05-05T19:04:12.897Z,89
2023-05-05T19:06:06.842Z,88
2023-05-05T19:08:06.844Z,88
2023-05-05T19:10:06.849Z,88
2023-05-05T19:12:06.817Z,89
2023-05-05T19:14:06.858Z,89
2023-05-05T19:16:06.863Z,88
2023-05-05T19:18:06.854Z,88
2023-05-05T19:20:06.825Z,88
2023-05-05T19:22:06.825Z,88
2023-05-05T19:24:06.826Z,89
2023-05-05T19:26:06.821Z,89
2023-05-05T19:28:06.836Z,89
2023-05-05T19:30:06.837Z,89
2023-05-05T19:32:06.929Z,89
2023-05-05T19:34:06.832Z,89
2023-05-05T19:36:06.820Z,89
2023-05-05T19:38:06.826Z,88
2023-05-05T19:40:06.828Z,88
2023-05-05T19:42:06.818Z,89
2023-05-05T19:44:06.825Z,89
2023-05-05T19:46:06.905Z,89
2023-05-05T19:48:06.844Z,89
2023-05-05T19:50:06.842Z,89
2023-05-05T19:52:06.837Z,89
2023-05-05T19:54:06.829Z,90
2023-05-05T19:56:06.922Z,90
2023-05-05T19:58:06.869Z,90
2023-05-05T20:00:07.114Z,89
2023-05-05T20:02:06.848Z,89
2023-05-05T20:04:06.820Z,89
2023-05-05T20:06:06.844Z,89
2023-05-05T20:08:06.849Z,89
2023-05-05T20:10:07.002Z,88
2023-05-05T20:14:06.849Z,89
2023-05-05T20:16:06.952Z,89
2023-05-05T20:18:06.923Z,89
2023-05-05T20:20:06.830Z,88
2023-05-05T20:22:06.847Z,89
2023-05-05T20:24:06.832Z,89
2023-05-05T20:26:06.851Z,89
2023-05-05T20:28:06.833Z,89
2023-05-05T20:30:07.090Z,89
2023-05-05T20:32:06.836Z,89
2023-05-05T20:34:06.833Z,89
2023-05-05T20:36:06.840Z,89
2023-05-05T20:38:06.899Z,89
2023-05-05T20:40:07.013Z,89
2023-05-05T20:42:06.851Z,90
2023-05-05T20:44:06.842Z,89
2023-05-05T20:46:06.868Z,89
2023-05-05T20:48:06.874Z,89
2023-05-05T20:50:06.904Z,89
2023-05-05T20:52:06.854Z,89
2023-05-05T20:54:06.851Z,89
2023-05-05T20:56:08.597Z,89
2023-05-05T21:00:07.070Z,89
2023-05-05T21:02:06.859Z,89
2023-05-05T21:04:06.848Z,89
2023-05-05T21:06:06.848Z,89
2023-05-05T21:10:06.947Z,89
2023-05-05T21:12:06.866Z,89
2023-05-05T21:14:06.850Z,89
2023-05-05T21:16:06.908Z,89
2023-05-05T21:18:06.866Z,90
2023-05-05T21:20:06.939Z,90
2023-05-05T21:22:06.841Z,90
2023-05-05T21:24:07.863Z,89
2023-05-05T21:26:06.861Z,89
2023-05-05T21:28:06.856Z,89
2023-05-05T21:30:09.356Z,89
2023-05-05T21:32:06.864Z,89
2023-05-05T21:34:06.842Z,89
2023-05-05T21:36:06.855Z,90
2023-05-05T21:38:06.842Z,90
2023-05-05T21:40:06.876Z,90
2023-05-05T21:42:06.937Z,90
2023-05-05T21:44:06.852Z,90
2023-05-05T21:46:06.871Z,90
2023-05-05T21:48:06.893Z,90
2023-05-05T21:50:06.921Z,90
2023-05-05T21:52:06.848Z,90
2023-05-05T21:54:06.861Z,90
2023-05-05T21:56:06.861Z,90
2023-05-05T21:58:06.879Z,90
2023-05-05T22:00:06.903Z,90
2023-05-05T22:02:06.839Z,90
2023-05-05T22:04:06.872Z,90
2023-05-05T22:06:06.864Z,90
2023-05-05T22:08:06.852Z,90
2023-05-05T22:10:06.898Z,90
2023-05-05T22:12:06.858Z,90
2023-05-05T22:14:06.855Z,90
2023-05-05T22:16:06.871Z,90
2023-05-05T22:18:06.891Z,90
2023-05-05T22:20:06.902Z,90
2023-05-05T22:22:06.850Z,90
2023-05-05T22:24:06.878Z,90
2023-05-05T22:26:06.859Z,90
2023-05-05T22:28:07.006Z,90
2023-05-05T22:30:06.855Z,90
2023-05-05T22:32:06.859Z,90
2023-05-05T22:34:06.861Z,90
2023-05-05T22:36:06.838Z,90
2023-05-05T22:38:06.852Z,89
2023-05-05T22:40:06.849Z,89
2023-05-05T22:42:06.864Z,89
2023-05-05T22:44:06.857Z,89
2023-05-05T22:46:06.862Z,89
2023-05-05T22:48:06.867Z,89
2023-05-05T22:50:06.831Z,89
2023-05-05T22:52:06.854Z,89
2023-05-05T22:54:06.864Z,89
2023-05-05T22:56:06.860Z,89
2023-05-05T22:58:06.840Z,89
2023-05-05T23:00:06.882Z,89
2023-05-05T23:02:06.879Z,89
2023-05-05T23:04:06.874Z,89
2023-05-05T23:06:06.852Z,89
2023-05-05T23:08:06.853Z,89
2023-05-05T23:10:06.841Z,89
2023-05-05T23:12:06.860Z,89
2023-05-05T23:14:06.818Z,89
2023-05-05T23:16:06.844Z,89
2023-05-05T23:18:06.886Z,89
2023-05-05T23:20:06.862Z,89
2023-05-05T23:22:06.844Z,89
2023-05-05T23:24:06.852Z,89
2023-05-05T23:26:07.084Z,89
2023-05-05T23:28:06.841Z,89
2023-05-05T23:30:06.852Z,89
2023-05-05T23:32:06.862Z,89
2023-05-05T23:34:06.882Z,89
2023-05-05T23:36:06.846Z,90
2023-05-05T23:38:06.872Z,90
2023-05-05T23:40:06.918Z,90
2023-05-05T23:42:06.874Z,90
2023-05-05T23:44:06.862Z,90
2023-05-05T23:46:06.931Z,89
2023-05-05T23:48:06.933Z,90
2023-05-05T23:50:06.973Z,90
2023-05-05T23:52:06.904Z,90
2023-05-05T23:54:06.862Z,89
2023-05-05T23:56:06.868Z,90
2023-05-05T23:58:06.862Z,90
